N624JX KLAS-KIAD
Flight info
| Callsign | N624JX |
|---|---|
| Flight time | 3h 28m |
| Altitude | 41000 |
| Route | GIDGT3 TUKRR PUB J64 HLC/N0525F450 STJ SPI J80 VHP APE MGW GIBBZ5 |
| Aircraft | C750/M-SBDE3FGHRWXY/S |
Departure
| Time | 2026-05-07 00:00 |
|---|---|
| Airport | Harry Reid International Airport (KLAS) |
Arrival
| Time | 2026-05-07 03:29 |
|---|---|
| Airport | Washington Dulles International Airport (KIAD) |
| Time | Latitude | Longitude | Altitude | Speed | Heading |
|---|---|---|---|---|---|
| 2026-05-06 23:42 | 36.09902 | -115.15987 | 2110 ft | 0 kts | 114° |
| 2026-05-06 23:57 | 36.09900 | -115.15981 | 2110 ft | 2 kts | 114° |
| 2026-05-06 23:57 | 36.09891 | -115.15937 | 2108 ft | 7 kts | 80° |
| 2026-05-06 23:57 | 36.09916 | -115.15912 | 2106 ft | 7 kts | 25° |
| 2026-05-06 23:58 | 36.09957 | -115.15846 | 2104 ft | 9 kts | 70° |
| 2026-05-06 23:58 | 36.09980 | -115.15770 | 2101 ft | 8 kts | 70° |
| 2026-05-06 23:58 | 36.09983 | -115.15744 | 2100 ft | 2 kts | 94° |
| 2026-05-06 23:58 | 36.09968 | -115.15702 | 2098 ft | 7 kts | 114° |
| 2026-05-06 23:59 | 36.09947 | -115.15662 | 2097 ft | 4 kts | 158° |
| 2026-05-06 23:59 | 36.09925 | -115.15668 | 2097 ft | 3 kts | 205° |
| 2026-05-06 23:59 | 36.09780 | -115.15751 | 2098 ft | 64 kts | 205° |
| 2026-05-06 23:59 | 36.09375 | -115.15984 | 2106 ft | 125 kts | 205° |
| 2026-05-07 00:00 | 36.08451 | -115.16513 | 2288 ft | 157 kts | 204° |
| 2026-05-07 00:00 | 36.07117 | -115.17295 | 3159 ft | 162 kts | 204° |
| 2026-05-07 00:00 | 36.06472 | -115.17815 | 3468 ft | 172 kts | 228° |
| 2026-05-07 00:00 | 36.06155 | -115.19361 | 3863 ft | 188 kts | 276° |
| 2026-05-07 00:01 | 36.06344 | -115.20930 | 4321 ft | 201 kts | 280° |
| 2026-05-07 00:01 | 36.06644 | -115.22703 | 4828 ft | 220 kts | 284° |
| 2026-05-07 00:01 | 36.07019 | -115.24624 | 5319 ft | 240 kts | 284° |
| 2026-05-07 00:01 | 36.07495 | -115.26666 | 5805 ft | 254 kts | 298° |
| 2026-05-07 00:02 | 36.08691 | -115.28215 | 6655 ft | 250 kts | 328° |
| 2026-05-07 00:02 | 36.10316 | -115.28937 | 7530 ft | 249 kts | 347° |
| 2026-05-07 00:02 | 36.12002 | -115.29396 | 8514 ft | 247 kts | 348° |
| 2026-05-07 00:02 | 36.13707 | -115.29601 | 9380 ft | 250 kts | 6° |
| 2026-05-07 00:03 | 36.15351 | -115.28889 | 10169 ft | 257 kts | 27° |
| 2026-05-07 00:03 | 36.16667 | -115.27278 | 10586 ft | 279 kts | 53° |
| 2026-05-07 00:03 | 36.17624 | -115.25048 | 11110 ft | 293 kts | 65° |
| 2026-05-07 00:03 | 36.18331 | -115.22671 | 11649 ft | 304 kts | 66° |
| 2026-05-07 00:04 | 36.19101 | -115.20191 | 12188 ft | 313 kts | 65° |
| 2026-05-07 00:04 | 36.19617 | -115.17527 | 12636 ft | 329 kts | 84° |
| 2026-05-07 00:04 | 36.19616 | -115.14660 | 13178 ft | 337 kts | 87° |
| 2026-05-07 00:04 | 36.19610 | -115.11685 | 13735 ft | 345 kts | 86° |
| 2026-05-07 00:05 | 36.19623 | -115.08683 | 14178 ft | 352 kts | 86° |
| 2026-05-07 00:05 | 36.19629 | -115.05662 | 14655 ft | 359 kts | 87° |
| 2026-05-07 00:05 | 36.19624 | -115.02508 | 15147 ft | 364 kts | 87° |
| 2026-05-07 00:05 | 36.19621 | -114.99349 | 15652 ft | 370 kts | 87° |
| 2026-05-07 00:06 | 36.19621 | -114.96162 | 16283 ft | 371 kts | 87° |
| 2026-05-07 00:06 | 36.19621 | -114.92951 | 16877 ft | 375 kts | 87° |
| 2026-05-07 00:06 | 36.19617 | -114.89714 | 17481 ft | 378 kts | 87° |
| 2026-05-07 00:06 | 36.19613 | -114.86448 | 18083 ft | 381 kts | 87° |
| 2026-05-07 00:07 | 36.19609 | -114.83145 | 18606 ft | 386 kts | 87° |
| 2026-05-07 00:07 | 36.19602 | -114.79815 | 19187 ft | 388 kts | 87° |
| 2026-05-07 00:07 | 36.19596 | -114.76466 | 19746 ft | 391 kts | 87° |
| 2026-05-07 00:07 | 36.19588 | -114.73131 | 20326 ft | 393 kts | 87° |
| 2026-05-07 00:08 | 36.19580 | -114.69689 | 20907 ft | 397 kts | 86° |
| 2026-05-07 00:08 | 36.19571 | -114.66260 | 21517 ft | 399 kts | 86° |
| 2026-05-07 00:08 | 36.19564 | -114.62812 | 22103 ft | 402 kts | 86° |
| 2026-05-07 00:08 | 36.19558 | -114.59334 | 22664 ft | 406 kts | 86° |
| 2026-05-07 00:09 | 36.19549 | -114.55830 | 23246 ft | 409 kts | 86° |
| 2026-05-07 00:09 | 36.19538 | -114.52299 | 23751 ft | 412 kts | 86° |
| 2026-05-07 00:09 | 36.19527 | -114.48749 | 24239 ft | 414 kts | 86° |
| 2026-05-07 00:09 | 36.19515 | -114.45171 | 24694 ft | 417 kts | 86° |
| 2026-05-07 00:10 | 36.19501 | -114.41571 | 25177 ft | 420 kts | 86° |
| 2026-05-07 00:10 | 36.19487 | -114.37947 | 25656 ft | 422 kts | 86° |
| 2026-05-07 00:10 | 36.19471 | -114.34300 | 26099 ft | 425 kts | 86° |
| 2026-05-07 00:10 | 36.19454 | -114.30632 | 26591 ft | 427 kts | 86° |
| 2026-05-07 00:11 | 36.19435 | -114.26941 | 27058 ft | 430 kts | 86° |
| 2026-05-07 00:11 | 36.19506 | -114.23240 | 27449 ft | 430 kts | 80° |
| 2026-05-07 00:11 | 36.19945 | -114.19581 | 27927 ft | 430 kts | 77° |
| 2026-05-07 00:11 | 36.20413 | -114.15916 | 28382 ft | 432 kts | 77° |
| 2026-05-07 00:12 | 36.20852 | -114.12222 | 28842 ft | 435 kts | 77° |
| 2026-05-07 00:12 | 36.21278 | -114.08500 | 29215 ft | 439 kts | 78° |
| 2026-05-07 00:12 | 36.21723 | -114.04750 | 29692 ft | 441 kts | 77° |
| 2026-05-07 00:12 | 36.22179 | -114.00989 | 30134 ft | 443 kts | 77° |
| 2026-05-07 00:13 | 36.22630 | -113.97202 | 30500 ft | 446 kts | 77° |
| 2026-05-07 00:13 | 36.23074 | -113.93396 | 30895 ft | 447 kts | 77° |
| 2026-05-07 00:13 | 36.23517 | -113.89597 | 31479 ft | 444 kts | 77° |
| 2026-05-07 00:13 | 36.23962 | -113.85820 | 32054 ft | 442 kts | 77° |
| 2026-05-07 00:14 | 36.24404 | -113.82061 | 32602 ft | 440 kts | 77° |
| 2026-05-07 00:14 | 36.24842 | -113.78313 | 33135 ft | 439 kts | 77° |
| 2026-05-07 00:14 | 36.25275 | -113.74578 | 33708 ft | 437 kts | 77° |
| 2026-05-07 00:14 | 36.25709 | -113.70844 | 34108 ft | 439 kts | 77° |
| 2026-05-07 00:15 | 36.26142 | -113.67106 | 34549 ft | 438 kts | 77° |
| 2026-05-07 00:15 | 36.26573 | -113.63373 | 35027 ft | 437 kts | 77° |
| 2026-05-07 00:15 | 36.27001 | -113.59651 | 35516 ft | 436 kts | 77° |
| 2026-05-07 00:15 | 36.27432 | -113.55888 | 35995 ft | 435 kts | 77° |
| 2026-05-07 00:16 | 36.27857 | -113.52179 | 36477 ft | 434 kts | 77° |
| 2026-05-07 00:16 | 36.28279 | -113.48478 | 36986 ft | 433 kts | 77° |
| 2026-05-07 00:16 | 36.28699 | -113.44788 | 37498 ft | 432 kts | 77° |
| 2026-05-07 00:16 | 36.29118 | -113.41101 | 37987 ft | 432 kts | 77° |
| 2026-05-07 00:17 | 36.29535 | -113.37416 | 38422 ft | 432 kts | 78° |
| 2026-05-07 00:17 | 36.29952 | -113.33724 | 38848 ft | 432 kts | 78° |
| 2026-05-07 00:17 | 36.30366 | -113.30032 | 39167 ft | 434 kts | 78° |
| 2026-05-07 00:17 | 36.30784 | -113.26320 | 39462 ft | 435 kts | 78° |
| 2026-05-07 00:18 | 36.31354 | -113.22643 | 39738 ft | 434 kts | 71° |
| 2026-05-07 00:18 | 36.32383 | -113.19141 | 40058 ft | 431 kts | 63° |
| 2026-05-07 00:18 | 36.33600 | -113.15738 | 40339 ft | 433 kts | 63° |
| 2026-05-07 00:18 | 36.34811 | -113.12310 | 40640 ft | 435 kts | 63° |
| 2026-05-07 00:19 | 36.36017 | -113.08859 | 40949 ft | 437 kts | 63° |
| 2026-05-07 00:19 | 36.37253 | -113.05347 | 40983 ft | 445 kts | 63° |
| 2026-05-07 00:19 | 36.39789 | -112.98152 | 40996 ft | 462 kts | 63° |
| 2026-05-07 00:20 | 36.42395 | -112.90702 | 40998 ft | 478 kts | 63° |
| 2026-05-07 00:20 | 36.45089 | -112.83008 | 41002 ft | 493 kts | 64° |
| 2026-05-07 00:21 | 36.47843 | -112.75105 | 41001 ft | 501 kts | 64° |
| 2026-05-07 00:21 | 36.50614 | -112.67138 | 40996 ft | 503 kts | 64° |
| 2026-05-07 00:22 | 36.53381 | -112.59165 | 40992 ft | 503 kts | 64° |
| 2026-05-07 00:22 | 36.56147 | -112.51173 | 40994 ft | 503 kts | 64° |
| 2026-05-07 00:23 | 36.58908 | -112.43171 | 41003 ft | 504 kts | 64° |
| 2026-05-07 00:23 | 36.61673 | -112.35138 | 41004 ft | 505 kts | 64° |
| 2026-05-07 00:24 | 36.64432 | -112.27102 | 41009 ft | 505 kts | 64° |
| 2026-05-07 00:24 | 36.67187 | -112.19057 | 40999 ft | 505 kts | 64° |
| 2026-05-07 00:25 | 36.69936 | -112.11007 | 40999 ft | 506 kts | 64° |
| 2026-05-07 00:25 | 36.72688 | -112.02925 | 40978 ft | 507 kts | 64° |
| 2026-05-07 00:26 | 36.75435 | -111.94837 | 40977 ft | 507 kts | 64° |
| 2026-05-07 00:26 | 36.78174 | -111.86750 | 40944 ft | 507 kts | 64° |
| 2026-05-07 00:27 | 36.80910 | -111.78649 | 40939 ft | 507 kts | 64° |
| 2026-05-07 00:27 | 36.83654 | -111.70506 | 40927 ft | 509 kts | 64° |
| 2026-05-07 00:28 | 36.86131 | -111.62217 | 40924 ft | 511 kts | 71° |
| 2026-05-07 00:28 | 36.88070 | -111.53672 | 41052 ft | 511 kts | 71° |
| 2026-05-07 00:29 | 36.90085 | -111.45151 | 41037 ft | 510 kts | 70° |
| 2026-05-07 00:30 | 36.94015 | -111.28121 | 41017 ft | 510 kts | 70° |
| 2026-05-07 00:30 | 36.95644 | -111.21032 | 40992 ft | 510 kts | 71° |
| 2026-05-07 00:31 | 36.97918 | -111.11116 | 40956 ft | 512 kts | 71° |
| 2026-05-07 00:31 | 36.99874 | -111.02546 | 40929 ft | 512 kts | 71° |
| 2026-05-07 00:32 | 37.01507 | -110.95372 | 40938 ft | 512 kts | 71° |
| 2026-05-07 00:32 | 37.03436 | -110.86876 | 40962 ft | 510 kts | 71° |
| 2026-05-07 00:33 | 37.05385 | -110.78249 | 40965 ft | 514 kts | 71° |
| 2026-05-07 00:33 | 37.07329 | -110.69617 | 40978 ft | 515 kts | 71° |
| 2026-05-07 00:34 | 37.09265 | -110.60988 | 40974 ft | 515 kts | 71° |
| 2026-05-07 00:34 | 37.11182 | -110.52413 | 40984 ft | 515 kts | 71° |
| 2026-05-07 00:35 | 37.13107 | -110.43767 | 40985 ft | 517 kts | 71° |
| 2026-05-07 00:35 | 37.15032 | -110.35091 | 40990 ft | 517 kts | 71° |
| 2026-05-07 00:36 | 37.16950 | -110.26414 | 40991 ft | 516 kts | 71° |
| 2026-05-07 00:36 | 37.18861 | -110.17735 | 40998 ft | 517 kts | 71° |
| 2026-05-07 00:37 | 37.20769 | -110.09035 | 40999 ft | 519 kts | 71° |
| 2026-05-07 00:37 | 37.22677 | -110.00301 | 41004 ft | 519 kts | 71° |
| 2026-05-07 00:38 | 37.24579 | -109.91561 | 41004 ft | 519 kts | 71° |
| 2026-05-07 00:38 | 37.26474 | -109.82822 | 41005 ft | 519 kts | 71° |
| 2026-05-07 00:39 | 37.28368 | -109.74052 | 41010 ft | 522 kts | 71° |
| 2026-05-07 00:39 | 37.30261 | -109.65248 | 41042 ft | 522 kts | 72° |
| 2026-05-07 00:40 | 37.32148 | -109.56439 | 41065 ft | 522 kts | 72° |
| 2026-05-07 00:40 | 37.34030 | -109.47623 | 41083 ft | 522 kts | 72° |
| 2026-05-07 00:41 | 37.35910 | -109.38780 | 41089 ft | 524 kts | 72° |
| 2026-05-07 00:41 | 37.37784 | -109.29926 | 41078 ft | 524 kts | 72° |
| 2026-05-07 00:42 | 37.39651 | -109.21070 | 41062 ft | 524 kts | 72° |
| 2026-05-07 00:42 | 37.41513 | -109.12205 | 41046 ft | 524 kts | 72° |
| 2026-05-07 00:43 | 37.43374 | -109.03304 | 41038 ft | 527 kts | 72° |
| 2026-05-07 00:43 | 37.45230 | -108.94394 | 41044 ft | 526 kts | 72° |
| 2026-05-07 00:44 | 37.47079 | -108.85483 | 41045 ft | 526 kts | 72° |
| 2026-05-07 00:44 | 37.48920 | -108.76566 | 41065 ft | 527 kts | 72° |
| 2026-05-07 00:45 | 37.50770 | -108.67582 | 41105 ft | 530 kts | 72° |
| 2026-05-07 00:45 | 37.52612 | -108.58585 | 41100 ft | 531 kts | 72° |
| 2026-05-07 00:46 | 37.54449 | -108.49581 | 41098 ft | 531 kts | 73° |
| 2026-05-07 00:46 | 37.56281 | -108.40564 | 41081 ft | 533 kts | 73° |
| 2026-05-07 00:47 | 37.58120 | -108.31473 | 41070 ft | 535 kts | 73° |
| 2026-05-07 00:47 | 37.59952 | -108.22376 | 41080 ft | 535 kts | 73° |
| 2026-05-07 00:48 | 37.61778 | -108.13275 | 41087 ft | 535 kts | 73° |
| 2026-05-07 00:48 | 37.63596 | -108.04168 | 41101 ft | 535 kts | 73° |
| 2026-05-07 00:49 | 37.65408 | -107.95056 | 41127 ft | 536 kts | 73° |
| 2026-05-07 00:49 | 37.67212 | -107.85939 | 41135 ft | 536 kts | 73° |
| 2026-05-07 00:50 | 37.69010 | -107.76816 | 41097 ft | 535 kts | 73° |
| 2026-05-07 00:50 | 37.70819 | -107.67600 | 41097 ft | 539 kts | 73° |
| 2026-05-07 00:51 | 37.72615 | -107.58402 | 41110 ft | 539 kts | 73° |
| 2026-05-07 00:51 | 37.74404 | -107.49208 | 41105 ft | 539 kts | 73° |
| 2026-05-07 00:52 | 37.76184 | -107.40011 | 41115 ft | 539 kts | 73° |
| 2026-05-07 00:52 | 37.77968 | -107.30760 | 41114 ft | 544 kts | 74° |
| 2026-05-07 00:53 | 37.79748 | -107.21473 | 41113 ft | 544 kts | 74° |
| 2026-05-07 00:53 | 37.81526 | -107.12170 | 41113 ft | 544 kts | 74° |
| 2026-05-07 00:54 | 37.83295 | -107.02860 | 41106 ft | 546 kts | 74° |
| 2026-05-07 00:54 | 37.85071 | -106.93477 | 41100 ft | 548 kts | 74° |
| 2026-05-07 00:55 | 37.86836 | -106.84100 | 41100 ft | 548 kts | 74° |
| 2026-05-07 00:55 | 37.88595 | -106.74719 | 41091 ft | 548 kts | 74° |
| 2026-05-07 00:56 | 37.90349 | -106.65319 | 41107 ft | 551 kts | 75° |
| 2026-05-07 00:56 | 37.92104 | -106.55868 | 41110 ft | 552 kts | 75° |
| 2026-05-07 00:57 | 37.93852 | -106.46406 | 41108 ft | 552 kts | 75° |
| 2026-05-07 00:57 | 37.95594 | -106.36936 | 41107 ft | 552 kts | 75° |
| 2026-05-07 00:58 | 37.97332 | -106.27440 | 41056 ft | 554 kts | 75° |
| 2026-05-07 00:58 | 37.99064 | -106.17928 | 41060 ft | 554 kts | 75° |
| 2026-05-07 00:59 | 38.01647 | -106.03653 | 41085 ft | 551 kts | 75° |
| 2026-05-07 01:00 | 38.03355 | -105.94168 | 41086 ft | 554 kts | 75° |
| 2026-05-07 01:00 | 38.05061 | -105.84632 | 41118 ft | 555 kts | 75° |
| 2026-05-07 01:01 | 38.06762 | -105.75087 | 41155 ft | 555 kts | 75° |
| 2026-05-07 01:01 | 38.08453 | -105.65541 | 41144 ft | 554 kts | 75° |
| 2026-05-07 01:02 | 38.10145 | -105.55953 | 41177 ft | 558 kts | 75° |
| 2026-05-07 01:02 | 38.11829 | -105.46344 | 41206 ft | 558 kts | 75° |
| 2026-05-07 01:03 | 38.13510 | -105.36719 | 41209 ft | 558 kts | 75° |
| 2026-05-07 01:03 | 38.15180 | -105.27100 | 41237 ft | 559 kts | 76° |
| 2026-05-07 01:04 | 38.16853 | -105.17420 | 41235 ft | 561 kts | 76° |
| 2026-05-07 01:04 | 38.18515 | -105.07743 | 41235 ft | 561 kts | 76° |
| 2026-05-07 01:05 | 38.20172 | -104.98053 | 41242 ft | 561 kts | 76° |
| 2026-05-07 01:05 | 38.21822 | -104.88350 | 41237 ft | 563 kts | 76° |
| 2026-05-07 01:06 | 38.23471 | -104.78599 | 41219 ft | 564 kts | 76° |
| 2026-05-07 01:06 | 38.25101 | -104.68911 | 41204 ft | 564 kts | 76° |
| 2026-05-07 01:07 | 38.26734 | -104.59154 | 41188 ft | 564 kts | 76° |
| 2026-05-07 01:07 | 38.28358 | -104.49396 | 41186 ft | 564 kts | 77° |
| 2026-05-07 01:08 | 38.30200 | -104.39646 | 41182 ft | 562 kts | 71° |
| 2026-05-07 01:08 | 38.32645 | -104.30201 | 41204 ft | 562 kts | 70° |
| 2026-05-07 01:09 | 38.34961 | -104.20690 | 41218 ft | 562 kts | 71° |
| 2026-05-07 01:09 | 38.37350 | -104.11161 | 41225 ft | 565 kts | 70° |
| 2026-05-07 01:10 | 38.39701 | -104.01591 | 41231 ft | 566 kts | 71° |
| 2026-05-07 01:10 | 38.42055 | -103.92027 | 41227 ft | 565 kts | 70° |
| 2026-05-07 01:11 | 38.44010 | -103.84075 | 41231 ft | 566 kts | 71° |
| 2026-05-07 01:11 | 38.46353 | -103.74436 | 41215 ft | 569 kts | 71° |
| 2026-05-07 01:12 | 38.48721 | -103.64728 | 41217 ft | 569 kts | 71° |
| 2026-05-07 01:12 | 38.51055 | -103.55069 | 41211 ft | 569 kts | 71° |
| 2026-05-07 01:13 | 38.53390 | -103.45405 | 41202 ft | 572 kts | 71° |
| 2026-05-07 01:13 | 38.55722 | -103.35682 | 41205 ft | 572 kts | 71° |
| 2026-05-07 01:14 | 38.58050 | -103.25959 | 41207 ft | 572 kts | 71° |
| 2026-05-07 01:14 | 38.60367 | -103.16227 | 41203 ft | 572 kts | 71° |
| 2026-05-07 01:15 | 38.62679 | -103.06490 | 41185 ft | 572 kts | 71° |
| 2026-05-07 01:15 | 38.64979 | -102.96749 | 41194 ft | 572 kts | 71° |
| 2026-05-07 01:16 | 38.67276 | -102.86989 | 41194 ft | 572 kts | 71° |
| 2026-05-07 01:16 | 38.69562 | -102.77232 | 41187 ft | 572 kts | 71° |
| 2026-05-07 01:17 | 38.71851 | -102.67425 | 41184 ft | 576 kts | 71° |
| 2026-05-07 01:17 | 38.74135 | -102.57594 | 41188 ft | 576 kts | 72° |
| 2026-05-07 01:18 | 38.76395 | -102.47824 | 41189 ft | 576 kts | 72° |
| 2026-05-07 01:18 | 38.78664 | -102.37977 | 41187 ft | 578 kts | 72° |
| 2026-05-07 01:19 | 38.80949 | -102.28015 | 41185 ft | 578 kts | 72° |
| 2026-05-07 01:19 | 38.83210 | -102.18119 | 41187 ft | 578 kts | 72° |
| 2026-05-07 01:20 | 38.85461 | -102.08216 | 41189 ft | 578 kts | 72° |
| 2026-05-07 01:20 | 38.87709 | -101.98292 | 41187 ft | 581 kts | 72° |
| 2026-05-07 01:21 | 38.89954 | -101.88329 | 41193 ft | 581 kts | 72° |
| 2026-05-07 01:21 | 38.92192 | -101.78362 | 41190 ft | 581 kts | 72° |
| 2026-05-07 01:22 | 38.94419 | -101.68392 | 41192 ft | 581 kts | 72° |
| 2026-05-07 01:22 | 38.96646 | -101.58382 | 41190 ft | 583 kts | 72° |
| 2026-05-07 01:23 | 38.98864 | -101.48368 | 41191 ft | 583 kts | 72° |
| 2026-05-07 01:23 | 39.01074 | -101.38344 | 41191 ft | 583 kts | 72° |
| 2026-05-07 01:24 | 39.03276 | -101.28312 | 41213 ft | 583 kts | 72° |
| 2026-05-07 01:24 | 39.05470 | -101.18267 | 41176 ft | 583 kts | 72° |
| 2026-05-07 01:25 | 39.07656 | -101.08218 | 41176 ft | 583 kts | 72° |
| 2026-05-07 01:25 | 39.09834 | -100.98158 | 41173 ft | 583 kts | 72° |
| 2026-05-07 01:26 | 39.12003 | -100.88093 | 41173 ft | 583 kts | 73° |
| 2026-05-07 01:26 | 39.14163 | -100.78023 | 41173 ft | 583 kts | 73° |
| 2026-05-07 01:27 | 39.16315 | -100.67947 | 41172 ft | 583 kts | 73° |
| 2026-05-07 01:27 | 39.18458 | -100.57861 | 41177 ft | 583 kts | 73° |
| 2026-05-07 01:28 | 39.20597 | -100.47750 | 41177 ft | 585 kts | 73° |
| 2026-05-07 01:28 | 39.22727 | -100.37633 | 41182 ft | 585 kts | 73° |
| 2026-05-07 01:29 | 39.24849 | -100.27506 | 41176 ft | 585 kts | 73° |
| 2026-05-07 01:29 | 39.26739 | -100.17313 | 41408 ft | 581 kts | 77° |
| 2026-05-07 01:29 | 39.27495 | -100.12219 | 41848 ft | 575 kts | 78° |
| 2026-05-07 01:30 | 39.28249 | -100.07184 | 42295 ft | 568 kts | 77° |
| 2026-05-07 01:30 | 39.29041 | -100.02212 | 42746 ft | 562 kts | 77° |
| 2026-05-07 01:30 | 39.29824 | -99.97302 | 43197 ft | 556 kts | 77° |
| 2026-05-07 01:30 | 39.30564 | -99.92431 | 43660 ft | 550 kts | 78° |
| 2026-05-07 01:31 | 39.31285 | -99.87613 | 44125 ft | 544 kts | 78° |
| 2026-05-07 01:31 | 39.32019 | -99.82850 | 44605 ft | 538 kts | 77° |
| 2026-05-07 01:31 | 39.32752 | -99.78140 | 45052 ft | 533 kts | 78° |
| 2026-05-07 01:32 | 39.34185 | -99.68663 | 45160 ft | 544 kts | 78° |
| 2026-05-07 01:32 | 39.35658 | -99.58945 | 45176 ft | 557 kts | 78° |
| 2026-05-07 01:33 | 39.37152 | -99.48995 | 45177 ft | 570 kts | 78° |
| 2026-05-07 01:33 | 39.38671 | -99.38825 | 45170 ft | 582 kts | 78° |
| 2026-05-07 01:34 | 39.40207 | -99.28478 | 45165 ft | 588 kts | 79° |
| 2026-05-07 01:34 | 39.41739 | -99.18090 | 45164 ft | 589 kts | 79° |
| 2026-05-07 01:35 | 39.43264 | -99.07682 | 45163 ft | 589 kts | 79° |
| 2026-05-07 01:35 | 39.44785 | -98.97231 | 45165 ft | 592 kts | 79° |
| 2026-05-07 01:36 | 39.46299 | -98.86760 | 45166 ft | 592 kts | 79° |
| 2026-05-07 01:36 | 39.47804 | -98.76284 | 45152 ft | 592 kts | 79° |
| 2026-05-07 01:37 | 39.49295 | -98.65837 | 45162 ft | 591 kts | 79° |
| 2026-05-07 01:37 | 39.50780 | -98.55358 | 45157 ft | 592 kts | 79° |
| 2026-05-07 01:38 | 39.52255 | -98.44878 | 45142 ft | 592 kts | 79° |
| 2026-05-07 01:38 | 39.53732 | -98.34315 | 45156 ft | 592 kts | 79° |
| 2026-05-07 01:39 | 39.55185 | -98.23849 | 45142 ft | 594 kts | 79° |
| 2026-05-07 01:39 | 39.56637 | -98.13314 | 45131 ft | 594 kts | 79° |
| 2026-05-07 01:40 | 39.58082 | -98.02767 | 45127 ft | 594 kts | 80° |
| 2026-05-07 01:40 | 39.59516 | -97.92214 | 45129 ft | 596 kts | 80° |
| 2026-05-07 01:41 | 39.60949 | -97.81605 | 45127 ft | 597 kts | 80° |
| 2026-05-07 01:41 | 39.62372 | -97.70987 | 45127 ft | 598 kts | 80° |
| 2026-05-07 01:42 | 39.63786 | -97.60361 | 45128 ft | 598 kts | 80° |
| 2026-05-07 01:42 | 39.65194 | -97.49705 | 45117 ft | 601 kts | 80° |
| 2026-05-07 01:43 | 39.66595 | -97.39019 | 45122 ft | 600 kts | 80° |
| 2026-05-07 01:43 | 39.67986 | -97.28336 | 45122 ft | 601 kts | 80° |
| 2026-05-07 01:44 | 39.69367 | -97.17645 | 45123 ft | 600 kts | 80° |
| 2026-05-07 01:44 | 39.70739 | -97.06945 | 45122 ft | 601 kts | 81° |
| 2026-05-07 01:45 | 39.72101 | -96.96243 | 45108 ft | 600 kts | 81° |
| 2026-05-07 01:45 | 39.73453 | -96.85541 | 45099 ft | 600 kts | 81° |
| 2026-05-07 01:46 | 39.74797 | -96.74816 | 45098 ft | 603 kts | 81° |
| 2026-05-07 01:46 | 39.76133 | -96.64070 | 45097 ft | 602 kts | 81° |
| 2026-05-07 01:47 | 39.77468 | -96.53257 | 45102 ft | 602 kts | 81° |
| 2026-05-07 01:47 | 39.78783 | -96.42505 | 45103 ft | 603 kts | 81° |
| 2026-05-07 01:48 | 39.80084 | -96.31799 | 45105 ft | 603 kts | 81° |
| 2026-05-07 01:48 | 39.81172 | -96.22771 | 45100 ft | 603 kts | 81° |
| 2026-05-07 01:49 | 39.82462 | -96.11989 | 45099 ft | 603 kts | 81° |
| 2026-05-07 01:49 | 39.83743 | -96.01195 | 45105 ft | 605 kts | 81° |
| 2026-05-07 01:50 | 39.85017 | -95.90378 | 45098 ft | 604 kts | 81° |
| 2026-05-07 01:50 | 39.86279 | -95.79567 | 45098 ft | 604 kts | 81° |
| 2026-05-07 01:51 | 39.87532 | -95.68746 | 45099 ft | 605 kts | 81° |
| 2026-05-07 01:51 | 39.88778 | -95.57891 | 45101 ft | 607 kts | 81° |
| 2026-05-07 01:52 | 39.90014 | -95.47030 | 45105 ft | 606 kts | 82° |
| 2026-05-07 01:52 | 39.91239 | -95.36180 | 45096 ft | 603 kts | 82° |
| 2026-05-07 01:53 | 39.92452 | -95.25338 | 45099 ft | 607 kts | 82° |
| 2026-05-07 01:53 | 39.93658 | -95.14471 | 45110 ft | 606 kts | 82° |
| 2026-05-07 01:54 | 39.94854 | -95.03587 | 45105 ft | 607 kts | 82° |
| 2026-05-07 01:54 | 39.95992 | -94.92690 | 45093 ft | 607 kts | 85° |
| 2026-05-07 01:55 | 39.96075 | -94.81700 | 45104 ft | 606 kts | 93° |
| 2026-05-07 01:55 | 39.95996 | -94.70773 | 45114 ft | 607 kts | 90° |
| 2026-05-07 01:56 | 39.96031 | -94.59770 | 45117 ft | 607 kts | 92° |
| 2026-05-07 01:56 | 39.95928 | -94.48769 | 45108 ft | 607 kts | 91° |
| 2026-05-07 01:57 | 39.95929 | -94.37769 | 45116 ft | 607 kts | 92° |
| 2026-05-07 01:57 | 39.95824 | -94.26778 | 45116 ft | 607 kts | 91° |
| 2026-05-07 01:58 | 39.95784 | -94.15779 | 45111 ft | 606 kts | 91° |
| 2026-05-07 01:58 | 39.95678 | -94.04732 | 45113 ft | 606 kts | 92° |
| 2026-05-07 01:59 | 39.95600 | -93.93732 | 45111 ft | 607 kts | 92° |
| 2026-05-07 01:59 | 39.95487 | -93.82734 | 45112 ft | 607 kts | 92° |
| 2026-05-07 02:00 | 39.95378 | -93.71739 | 45108 ft | 606 kts | 92° |
| 2026-05-07 02:00 | 39.95251 | -93.60751 | 45109 ft | 607 kts | 92° |
| 2026-05-07 02:01 | 39.95119 | -93.49830 | 45111 ft | 607 kts | 92° |
| 2026-05-07 02:01 | 39.94973 | -93.38842 | 45111 ft | 606 kts | 92° |
| 2026-05-07 02:02 | 39.94818 | -93.27852 | 45117 ft | 606 kts | 92° |
| 2026-05-07 02:02 | 39.94652 | -93.16868 | 45118 ft | 606 kts | 92° |
| 2026-05-07 02:03 | 39.94475 | -93.05809 | 45117 ft | 606 kts | 92° |
| 2026-05-07 02:03 | 39.94290 | -92.94879 | 45108 ft | 609 kts | 93° |
| 2026-05-07 02:04 | 39.94092 | -92.83864 | 45105 ft | 608 kts | 93° |
| 2026-05-07 02:04 | 39.93884 | -92.72855 | 45108 ft | 608 kts | 93° |
| 2026-05-07 02:05 | 39.93666 | -92.61842 | 45121 ft | 608 kts | 93° |
| 2026-05-07 02:05 | 39.93437 | -92.50823 | 45121 ft | 608 kts | 93° |
| 2026-05-07 02:06 | 39.93198 | -92.39805 | 45116 ft | 608 kts | 93° |
| 2026-05-07 02:06 | 39.92947 | -92.28717 | 45102 ft | 608 kts | 94° |
| 2026-05-07 02:07 | 39.92686 | -92.17678 | 45102 ft | 610 kts | 94° |
| 2026-05-07 02:07 | 39.92275 | -92.01112 | 45098 ft | 610 kts | 94° |
| 2026-05-07 02:08 | 39.91988 | -91.90067 | 45099 ft | 610 kts | 94° |
| 2026-05-07 02:08 | 39.91690 | -91.79014 | 45099 ft | 610 kts | 94° |
| 2026-05-07 02:09 | 39.91382 | -91.67967 | 45098 ft | 610 kts | 94° |
| 2026-05-07 02:09 | 39.91064 | -91.56923 | 45105 ft | 610 kts | 94° |
| 2026-05-07 02:10 | 39.90734 | -91.45875 | 45102 ft | 612 kts | 94° |
| 2026-05-07 02:10 | 39.90394 | -91.34811 | 45096 ft | 611 kts | 94° |
| 2026-05-07 02:11 | 39.90043 | -91.23750 | 45101 ft | 611 kts | 95° |
| 2026-05-07 02:11 | 39.89682 | -91.12692 | 45089 ft | 611 kts | 95° |
| 2026-05-07 02:12 | 39.89310 | -91.01607 | 45094 ft | 613 kts | 95° |
| 2026-05-07 02:12 | 39.88927 | -90.90526 | 45089 ft | 613 kts | 95° |
| 2026-05-07 02:13 | 39.88533 | -90.79444 | 45093 ft | 613 kts | 95° |
| 2026-05-07 02:13 | 39.88129 | -90.68364 | 45093 ft | 613 kts | 95° |
| 2026-05-07 02:14 | 39.87714 | -90.57273 | 45087 ft | 613 kts | 95° |
| 2026-05-07 02:14 | 39.87288 | -90.46181 | 45098 ft | 613 kts | 95° |
| 2026-05-07 02:15 | 39.86852 | -90.35102 | 45096 ft | 613 kts | 95° |
| 2026-05-07 02:15 | 39.86404 | -90.23994 | 45095 ft | 615 kts | 95° |
| 2026-05-07 02:16 | 39.85946 | -90.12886 | 45089 ft | 614 kts | 95° |
| 2026-05-07 02:16 | 39.85477 | -90.01786 | 45086 ft | 614 kts | 96° |
| 2026-05-07 02:17 | 39.84998 | -89.90685 | 45083 ft | 615 kts | 96° |
| 2026-05-07 02:17 | 39.84507 | -89.79575 | 45085 ft | 615 kts | 96° |
| 2026-05-07 02:18 | 39.84011 | -89.68471 | 45081 ft | 615 kts | 95° |
| 2026-05-07 02:18 | 39.84028 | -89.57326 | 45093 ft | 617 kts | 90° |
| 2026-05-07 02:19 | 39.84116 | -89.46175 | 45083 ft | 616 kts | 92° |
| 2026-05-07 02:19 | 39.84134 | -89.35011 | 45081 ft | 616 kts | 91° |
| 2026-05-07 02:20 | 39.84202 | -89.23860 | 45080 ft | 616 kts | 92° |
| 2026-05-07 02:20 | 39.84204 | -89.12689 | 45071 ft | 618 kts | 92° |
| 2026-05-07 02:21 | 39.84243 | -89.01512 | 45082 ft | 618 kts | 92° |
| 2026-05-07 02:21 | 39.84234 | -88.90335 | 45089 ft | 618 kts | 92° |
| 2026-05-07 02:22 | 39.84240 | -88.79153 | 45083 ft | 620 kts | 92° |
| 2026-05-07 02:22 | 39.84218 | -88.67945 | 45078 ft | 619 kts | 92° |
| 2026-05-07 02:23 | 39.84197 | -88.56746 | 45072 ft | 619 kts | 92° |
| 2026-05-07 02:23 | 39.84157 | -88.45546 | 45059 ft | 619 kts | 92° |
| 2026-05-07 02:24 | 39.84103 | -88.34326 | 45074 ft | 620 kts | 92° |
| 2026-05-07 02:24 | 39.84040 | -88.23110 | 45073 ft | 620 kts | 92° |
| 2026-05-07 02:25 | 39.83971 | -88.11890 | 45068 ft | 620 kts | 92° |
| 2026-05-07 02:25 | 39.83889 | -88.00582 | 45067 ft | 621 kts | 92° |
| 2026-05-07 02:26 | 39.83798 | -87.89429 | 45074 ft | 621 kts | 92° |
| 2026-05-07 02:26 | 39.83695 | -87.78195 | 45080 ft | 621 kts | 92° |
| 2026-05-07 02:27 | 39.83582 | -87.66959 | 45077 ft | 622 kts | 92° |
| 2026-05-07 02:27 | 39.83457 | -87.55699 | 45071 ft | 622 kts | 93° |
| 2026-05-07 02:28 | 39.83344 | -87.46273 | 45068 ft | 622 kts | 93° |
| 2026-05-07 02:28 | 39.83199 | -87.35018 | 45057 ft | 622 kts | 93° |
| 2026-05-07 02:29 | 39.83044 | -87.23756 | 45050 ft | 622 kts | 93° |
| 2026-05-07 02:29 | 39.82878 | -87.12575 | 45053 ft | 622 kts | 93° |
| 2026-05-07 02:30 | 39.82700 | -87.01244 | 45051 ft | 622 kts | 93° |
| 2026-05-07 02:30 | 39.82512 | -86.89990 | 45062 ft | 622 kts | 93° |
| 2026-05-07 02:31 | 39.82313 | -86.78745 | 45057 ft | 622 kts | 93° |
| 2026-05-07 02:31 | 39.82104 | -86.67558 | 45058 ft | 622 kts | 93° |
| 2026-05-07 02:32 | 39.81882 | -86.56246 | 45008 ft | 622 kts | 94° |
| 2026-05-07 02:32 | 39.81650 | -86.44988 | 45050 ft | 623 kts | 94° |
| 2026-05-07 02:33 | 39.81727 | -86.33725 | 45045 ft | 624 kts | 85° |
| 2026-05-07 02:33 | 39.83011 | -86.22477 | 45061 ft | 625 kts | 81° |
| 2026-05-07 02:34 | 39.84127 | -86.11263 | 45071 ft | 626 kts | 84° |
| 2026-05-07 02:34 | 39.85294 | -86.00037 | 45052 ft | 626 kts | 82° |
| 2026-05-07 02:35 | 39.86452 | -85.88810 | 45050 ft | 626 kts | 83° |
| 2026-05-07 02:35 | 39.87560 | -85.77574 | 45051 ft | 626 kts | 82° |
| 2026-05-07 02:36 | 39.88713 | -85.66348 | 45047 ft | 626 kts | 83° |
| 2026-05-07 02:36 | 39.89795 | -85.55104 | 45044 ft | 626 kts | 83° |
| 2026-05-07 02:37 | 39.90923 | -85.43871 | 45050 ft | 626 kts | 83° |
| 2026-05-07 02:37 | 39.91992 | -85.32623 | 45049 ft | 625 kts | 83° |
| 2026-05-07 02:38 | 39.93088 | -85.21382 | 45040 ft | 626 kts | 83° |
| 2026-05-07 02:38 | 39.94144 | -85.10130 | 45034 ft | 625 kts | 83° |
| 2026-05-07 02:39 | 39.95209 | -84.98888 | 45039 ft | 624 kts | 83° |
| 2026-05-07 02:39 | 39.96232 | -84.87649 | 45037 ft | 624 kts | 85° |
| 2026-05-07 02:40 | 39.96078 | -84.76392 | 45042 ft | 620 kts | 99° |
| 2026-05-07 02:40 | 39.95256 | -84.65203 | 45038 ft | 621 kts | 97° |
| 2026-05-07 02:41 | 39.94625 | -84.53982 | 45043 ft | 621 kts | 97° |
| 2026-05-07 02:41 | 39.93869 | -84.42784 | 45042 ft | 621 kts | 98° |
| 2026-05-07 02:42 | 39.93182 | -84.31573 | 45039 ft | 620 kts | 97° |
| 2026-05-07 02:42 | 39.92433 | -84.20368 | 45029 ft | 621 kts | 98° |
| 2026-05-07 02:43 | 39.91701 | -84.09147 | 45010 ft | 621 kts | 97° |
| 2026-05-07 02:43 | 39.90946 | -83.97941 | 45013 ft | 621 kts | 98° |
| 2026-05-07 02:44 | 39.90183 | -83.86736 | 45028 ft | 621 kts | 98° |
| 2026-05-07 02:44 | 39.89411 | -83.75527 | 45033 ft | 621 kts | 98° |
| 2026-05-07 02:45 | 39.88623 | -83.64317 | 45048 ft | 621 kts | 98° |
| 2026-05-07 02:45 | 39.87831 | -83.53115 | 45023 ft | 621 kts | 98° |
| 2026-05-07 02:46 | 39.87022 | -83.41909 | 45036 ft | 622 kts | 98° |
| 2026-05-07 02:46 | 39.86206 | -83.30704 | 45041 ft | 622 kts | 98° |
| 2026-05-07 02:47 | 39.85376 | -83.19501 | 45039 ft | 622 kts | 98° |
| 2026-05-07 02:47 | 39.84538 | -83.08297 | 45040 ft | 623 kts | 98° |
| 2026-05-07 02:48 | 39.83687 | -82.97087 | 45020 ft | 623 kts | 98° |
| 2026-05-07 02:48 | 39.82826 | -82.85885 | 45021 ft | 623 kts | 98° |
| 2026-05-07 02:49 | 39.81953 | -82.74679 | 45019 ft | 623 kts | 98° |
| 2026-05-07 02:49 | 39.81069 | -82.63461 | 45022 ft | 623 kts | 98° |
| 2026-05-07 02:50 | 39.80174 | -82.52252 | 45023 ft | 623 kts | 99° |
| 2026-05-07 02:50 | 39.79267 | -82.41039 | 45014 ft | 623 kts | 99° |
| 2026-05-07 02:51 | 39.78351 | -82.29824 | 45005 ft | 624 kts | 99° |
| 2026-05-07 02:51 | 39.77422 | -82.18606 | 45004 ft | 624 kts | 99° |
| 2026-05-07 02:52 | 39.76483 | -82.07399 | 45003 ft | 624 kts | 99° |
| 2026-05-07 02:52 | 39.75534 | -81.96195 | 45003 ft | 624 kts | 99° |
| 2026-05-07 02:53 | 39.74573 | -81.84993 | 45004 ft | 624 kts | 99° |
| 2026-05-07 02:53 | 39.73602 | -81.73793 | 44978 ft | 624 kts | 99° |
| 2026-05-07 02:54 | 39.72618 | -81.62579 | 44998 ft | 625 kts | 99° |
| 2026-05-07 02:54 | 39.71624 | -81.51365 | 44980 ft | 625 kts | 99° |
| 2026-05-07 02:55 | 39.70612 | -81.40081 | 44975 ft | 625 kts | 99° |
| 2026-05-07 02:55 | 39.69603 | -81.28951 | 44973 ft | 624 kts | 99° |
| 2026-05-07 02:56 | 39.68571 | -81.17696 | 44972 ft | 624 kts | 99° |
| 2026-05-07 02:56 | 39.67533 | -81.06493 | 44971 ft | 624 kts | 100° |
| 2026-05-07 02:57 | 39.66485 | -80.95299 | 44971 ft | 624 kts | 100° |
| 2026-05-07 02:57 | 39.65426 | -80.84108 | 44977 ft | 626 kts | 100° |
| 2026-05-07 02:58 | 39.64356 | -80.72913 | 44933 ft | 624 kts | 100° |
| 2026-05-07 02:58 | 39.63816 | -80.67314 | 44005 ft | 628 kts | 100° |
| 2026-05-07 02:58 | 39.63273 | -80.61709 | 43203 ft | 628 kts | 100° |
| 2026-05-07 02:59 | 39.62723 | -80.56070 | 42378 ft | 633 kts | 101° |
| 2026-05-07 02:59 | 39.62166 | -80.50372 | 41548 ft | 639 kts | 101° |
| 2026-05-07 02:59 | 39.61600 | -80.44623 | 40702 ft | 647 kts | 101° |
| 2026-05-07 02:59 | 39.61025 | -80.38801 | 39864 ft | 655 kts | 101° |
| 2026-05-07 03:00 | 39.60440 | -80.32919 | 38994 ft | 661 kts | 101° |
| 2026-05-07 03:00 | 39.59844 | -80.26957 | 38076 ft | 670 kts | 102° |
| 2026-05-07 03:00 | 39.59244 | -80.20965 | 37198 ft | 671 kts | 102° |
| 2026-05-07 03:00 | 39.58648 | -80.15050 | 36307 ft | 671 kts | 102° |
| 2026-05-07 03:01 | 39.58031 | -80.08978 | 35440 ft | 671 kts | 102° |
| 2026-05-07 03:01 | 39.57417 | -80.02974 | 34560 ft | 673 kts | 102° |
| 2026-05-07 03:01 | 39.56800 | -79.96965 | 33640 ft | 674 kts | 102° |
| 2026-05-07 03:01 | 39.56186 | -79.90973 | 32751 ft | 663 kts | 102° |
| 2026-05-07 03:02 | 39.55521 | -79.85141 | 31865 ft | 644 kts | 106° |
| 2026-05-07 03:02 | 39.54544 | -79.79560 | 30994 ft | 629 kts | 109° |
| 2026-05-07 03:02 | 39.53531 | -79.74121 | 30224 ft | 613 kts | 109° |
| 2026-05-07 03:02 | 39.52560 | -79.68807 | 29359 ft | 600 kts | 109° |
| 2026-05-07 03:03 | 39.51636 | -79.63570 | 28556 ft | 594 kts | 108° |
| 2026-05-07 03:03 | 39.50712 | -79.58394 | 27780 ft | 587 kts | 109° |
| 2026-05-07 03:03 | 39.49773 | -79.53297 | 26998 ft | 578 kts | 109° |
| 2026-05-07 03:03 | 39.49155 | -79.49955 | 26594 ft | 573 kts | 109° |
| 2026-05-07 03:04 | 39.48254 | -79.44944 | 26007 ft | 570 kts | 109° |
| 2026-05-07 03:04 | 39.47380 | -79.39975 | 25398 ft | 561 kts | 109° |
| 2026-05-07 03:04 | 39.46493 | -79.35081 | 24813 ft | 555 kts | 109° |
| 2026-05-07 03:04 | 39.45604 | -79.30342 | 24238 ft | 528 kts | 110° |
| 2026-05-07 03:05 | 39.44764 | -79.25825 | 23689 ft | 504 kts | 110° |
| 2026-05-07 03:05 | 39.43968 | -79.21486 | 23120 ft | 489 kts | 110° |
| 2026-05-07 03:05 | 39.43184 | -79.17253 | 22604 ft | 480 kts | 110° |
| 2026-05-07 03:05 | 39.42430 | -79.13058 | 22087 ft | 478 kts | 108° |
| 2026-05-07 03:06 | 39.41722 | -79.08873 | 21602 ft | 475 kts | 108° |
| 2026-05-07 03:06 | 39.41010 | -79.04717 | 21080 ft | 471 kts | 108° |
| 2026-05-07 03:06 | 39.40277 | -79.00625 | 20615 ft | 465 kts | 108° |
| 2026-05-07 03:06 | 39.39548 | -78.96565 | 20130 ft | 461 kts | 108° |
| 2026-05-07 03:07 | 39.38841 | -78.92537 | 19644 ft | 458 kts | 107° |
| 2026-05-07 03:07 | 39.38141 | -78.88544 | 19167 ft | 453 kts | 107° |
| 2026-05-07 03:07 | 39.37429 | -78.84605 | 18657 ft | 448 kts | 108° |
| 2026-05-07 03:07 | 39.36718 | -78.80702 | 18173 ft | 444 kts | 107° |
| 2026-05-07 03:08 | 39.36024 | -78.76833 | 17678 ft | 438 kts | 107° |
| 2026-05-07 03:08 | 39.35346 | -78.73030 | 17215 ft | 433 kts | 107° |
| 2026-05-07 03:08 | 39.34663 | -78.69267 | 16835 ft | 428 kts | 108° |
| 2026-05-07 03:08 | 39.33986 | -78.65552 | 16383 ft | 420 kts | 107° |
| 2026-05-07 03:09 | 39.33327 | -78.61906 | 15951 ft | 415 kts | 107° |
| 2026-05-07 03:09 | 39.32672 | -78.58297 | 15509 ft | 410 kts | 108° |
| 2026-05-07 03:09 | 39.32024 | -78.54734 | 15077 ft | 406 kts | 108° |
| 2026-05-07 03:09 | 39.31390 | -78.51206 | 14656 ft | 401 kts | 108° |
| 2026-05-07 03:10 | 39.30766 | -78.47714 | 14232 ft | 396 kts | 108° |
| 2026-05-07 03:10 | 39.30147 | -78.44269 | 13817 ft | 392 kts | 108° |
| 2026-05-07 03:10 | 39.29529 | -78.40862 | 13377 ft | 388 kts | 108° |
| 2026-05-07 03:10 | 39.28864 | -78.37553 | 12946 ft | 382 kts | 114° |
| 2026-05-07 03:11 | 39.27595 | -78.34603 | 12537 ft | 367 kts | 131° |
| 2026-05-07 03:11 | 39.26154 | -78.31892 | 12181 ft | 366 kts | 132° |
| 2026-05-07 03:11 | 39.24733 | -78.29185 | 11801 ft | 358 kts | 131° |
| 2026-05-07 03:11 | 39.23390 | -78.26585 | 11429 ft | 338 kts | 132° |
| 2026-05-07 03:12 | 39.22098 | -78.24121 | 11080 ft | 328 kts | 133° |
| 2026-05-07 03:12 | 39.20819 | -78.21717 | 10869 ft | 322 kts | 133° |
| 2026-05-07 03:12 | 39.19558 | -78.19333 | 10635 ft | 322 kts | 133° |
| 2026-05-07 03:12 | 39.18305 | -78.16948 | 10384 ft | 320 kts | 132° |
| 2026-05-07 03:13 | 39.17058 | -78.14574 | 10116 ft | 319 kts | 133° |
| 2026-05-07 03:13 | 39.15824 | -78.12231 | 10026 ft | 315 kts | 133° |
| 2026-05-07 03:13 | 39.14587 | -78.09893 | 10031 ft | 316 kts | 133° |
| 2026-05-07 03:13 | 39.13348 | -78.07549 | 9937 ft | 318 kts | 133° |
| 2026-05-07 03:14 | 39.12108 | -78.05198 | 9636 ft | 316 kts | 132° |
| 2026-05-07 03:14 | 39.10877 | -78.02863 | 9319 ft | 313 kts | 132° |
| 2026-05-07 03:14 | 39.08443 | -77.98269 | 8674 ft | 308 kts | 132° |
| 2026-05-07 03:15 | 39.07240 | -77.96004 | 8340 ft | 305 kts | 132° |
| 2026-05-07 03:15 | 39.06044 | -77.93754 | 8027 ft | 303 kts | 131° |
| 2026-05-07 03:15 | 39.04865 | -77.91525 | 7713 ft | 300 kts | 131° |
| 2026-05-07 03:15 | 39.03688 | -77.89316 | 7399 ft | 298 kts | 131° |
| 2026-05-07 03:16 | 39.02519 | -77.87127 | 7101 ft | 296 kts | 131° |
| 2026-05-07 03:16 | 39.01367 | -77.84959 | 6972 ft | 293 kts | 130° |
| 2026-05-07 03:16 | 39.00216 | -77.82793 | 6796 ft | 293 kts | 130° |
| 2026-05-07 03:16 | 38.99063 | -77.80624 | 6572 ft | 294 kts | 130° |
| 2026-05-07 03:17 | 38.97914 | -77.78464 | 6320 ft | 291 kts | 130° |
| 2026-05-07 03:17 | 38.96825 | -77.76280 | 6028 ft | 291 kts | 122° |
| 2026-05-07 03:17 | 38.96331 | -77.73720 | 6015 ft | 297 kts | 102° |
| 2026-05-07 03:17 | 38.96057 | -77.71090 | 6023 ft | 299 kts | 101° |
| 2026-05-07 03:18 | 38.95795 | -77.68475 | 6027 ft | 298 kts | 101° |
| 2026-05-07 03:18 | 38.95502 | -77.65795 | 6028 ft | 300 kts | 102° |
| 2026-05-07 03:18 | 38.94777 | -77.63354 | 5965 ft | 288 kts | 129° |
| 2026-05-07 03:18 | 38.93393 | -77.61569 | 5975 ft | 278 kts | 152° |
| 2026-05-07 03:19 | 38.91680 | -77.60542 | 5995 ft | 269 kts | 165° |
| 2026-05-07 03:19 | 38.89939 | -77.59665 | 6013 ft | 273 kts | 164° |
| 2026-05-07 03:19 | 38.88153 | -77.58748 | 6011 ft | 274 kts | 163° |
| 2026-05-07 03:19 | 38.86366 | -77.57826 | 6012 ft | 274 kts | 164° |
| 2026-05-07 03:20 | 38.84582 | -77.57332 | 5962 ft | 254 kts | 184° |
| 2026-05-07 03:20 | 38.82928 | -77.57425 | 5844 ft | 234 kts | 188° |
| 2026-05-07 03:20 | 38.81333 | -77.57500 | 5630 ft | 225 kts | 187° |
| 2026-05-07 03:20 | 38.79799 | -77.57565 | 5408 ft | 219 kts | 187° |
| 2026-05-07 03:21 | 38.78260 | -77.57640 | 5161 ft | 218 kts | 187° |
| 2026-05-07 03:21 | 38.76751 | -77.57715 | 4905 ft | 216 kts | 187° |
| 2026-05-07 03:21 | 38.75251 | -77.57599 | 4584 ft | 223 kts | 167° |
| 2026-05-07 03:21 | 38.74015 | -77.56287 | 4166 ft | 236 kts | 124° |
| 2026-05-07 03:22 | 38.73598 | -77.54353 | 3889 ft | 225 kts | 100° |
| 2026-05-07 03:22 | 38.73400 | -77.52429 | 3675 ft | 211 kts | 99° |
| 2026-05-07 03:22 | 38.73198 | -77.50562 | 3446 ft | 208 kts | 99° |
| 2026-05-07 03:22 | 38.72987 | -77.48754 | 3204 ft | 204 kts | 98° |
| 2026-05-07 03:23 | 38.72982 | -77.46996 | 2945 ft | 191 kts | 65° |
| 2026-05-07 03:23 | 38.73846 | -77.45837 | 2996 ft | 182 kts | 28° |
| 2026-05-07 03:23 | 38.74989 | -77.45079 | 3013 ft | 186 kts | 23° |
| 2026-05-07 03:23 | 38.76126 | -77.44316 | 3011 ft | 183 kts | 25° |
| 2026-05-07 03:24 | 38.77291 | -77.43814 | 2968 ft | 173 kts | 359° |
| 2026-05-07 03:24 | 38.78463 | -77.43857 | 2996 ft | 167 kts | 358° |
| 2026-05-07 03:24 | 38.79633 | -77.43837 | 2798 ft | 166 kts | 359° |
| 2026-05-07 03:24 | 38.80735 | -77.43819 | 2571 ft | 152 kts | 358° |
| 2026-05-07 03:25 | 38.81759 | -77.43802 | 2383 ft | 139 kts | 359° |
| 2026-05-07 03:25 | 38.82696 | -77.43786 | 2205 ft | 131 kts | 359° |
| 2026-05-07 03:25 | 38.83570 | -77.43772 | 2045 ft | 120 kts | 358° |
| 2026-05-07 03:25 | 38.84380 | -77.43759 | 1886 ft | 115 kts | 0° |
| 2026-05-07 03:26 | 38.85180 | -77.43747 | 1734 ft | 115 kts | 359° |
| 2026-05-07 03:26 | 38.85968 | -77.43736 | 1579 ft | 110 kts | 359° |
| 2026-05-07 03:26 | 38.86726 | -77.43723 | 1437 ft | 106 kts | 359° |
| 2026-05-07 03:26 | 38.87461 | -77.43712 | 1295 ft | 107 kts | 1° |
| 2026-05-07 03:27 | 38.88220 | -77.43706 | 1155 ft | 113 kts | 358° |
| 2026-05-07 03:27 | 38.89017 | -77.43694 | 1013 ft | 115 kts | 359° |
| 2026-05-07 03:27 | 38.89821 | -77.43681 | 855 ft | 112 kts | 358° |
| 2026-05-07 03:27 | 38.90594 | -77.43671 | 711 ft | 111 kts | 358° |
| 2026-05-07 03:28 | 38.91381 | -77.43659 | 537 ft | 112 kts | 0° |
| 2026-05-07 03:28 | 38.92153 | -77.43646 | 398 ft | 111 kts | 358° |
| 2026-05-07 03:28 | 38.92927 | -77.43638 | 302 ft | 102 kts | 358° |
| 2026-05-07 03:28 | 38.93465 | -77.43630 | 297 ft | 50 kts | 0° |
| 2026-05-07 03:29 | 38.93746 | -77.43626 | 296 ft | 25 kts | 0° |
| 2026-05-07 03:29 | 38.93902 | -77.43646 | 298 ft | 21 kts | 342° |
| 2026-05-07 03:29 | 38.94024 | -77.43722 | 297 ft | 19 kts | 329° |
| 2026-05-07 03:29 | 38.94131 | -77.43811 | 300 ft | 18 kts | 330° |
| 2026-05-07 03:30 | 38.94246 | -77.43859 | 297 ft | 17 kts | 351° |
| 2026-05-07 03:30 | 38.94366 | -77.43862 | 299 ft | 18 kts | 1° |
| 2026-05-07 03:30 | 38.94488 | -77.43860 | 299 ft | 17 kts | 0° |
| 2026-05-07 03:30 | 38.94605 | -77.43860 | 298 ft | 17 kts | 0° |
| 2026-05-07 03:31 | 38.94719 | -77.43858 | 297 ft | 16 kts | 0° |
| 2026-05-07 03:31 | 38.94828 | -77.43857 | 298 ft | 15 kts | 360° |
| 2026-05-07 03:31 | 38.94932 | -77.43856 | 297 ft | 15 kts | 0° |
| 2026-05-07 03:31 | 38.95032 | -77.43854 | 297 ft | 14 kts | 1° |
| 2026-05-07 03:32 | 38.95130 | -77.43852 | 298 ft | 14 kts | 1° |
| 2026-05-07 03:32 | 38.95224 | -77.43851 | 297 ft | 13 kts | 0° |
| 2026-05-07 03:32 | 38.95314 | -77.43850 | 297 ft | 13 kts | 1° |
| 2026-05-07 03:32 | 38.95399 | -77.43848 | 299 ft | 11 kts | 0° |
| 2026-05-07 03:33 | 38.95469 | -77.43860 | 300 ft | 10 kts | 324° |
| 2026-05-07 03:33 | 38.95485 | -77.43936 | 297 ft | 9 kts | 270° |
| 2026-05-07 03:33 | 38.95485 | -77.43989 | 297 ft | 9 kts | 271° |
| 2026-05-07 03:33 | 38.95483 | -77.44065 | 297 ft | 7 kts | 240° |
| 2026-05-07 03:34 | 38.95440 | -77.44074 | 297 ft | 6 kts | 180° |
| 2026-05-07 03:34 | 38.95397 | -77.44076 | 297 ft | 5 kts | 193° |
| 2026-05-07 03:34 | 38.95386 | -77.44110 | 298 ft | 4 kts | 270° |
| 2026-05-07 03:34 | 38.95395 | -77.44126 | 297 ft | 1 kts | 342° |
| 2026-05-07 03:35 | 38.95400 | -77.44125 | 300 ft | 0 kts | 359° |